sensor_id;sensor_type;location;lat;lon;timestamp;temperature;humidity
9971;DHT22;5026;51.494;11.974;2023-04-01T00:01:42;10.50;99.90
9971;DHT22;5026;51.494;11.974;2023-04-01T00:04:09;10.50;99.90
9971;DHT22;5026;51.494;11.974;2023-04-01T00:06:36;10.50;99.90
9971;DHT22;5026;51.494;11.974;2023-04-01T00:09:04;10.50;99.90
9971;DHT22;5026;51.494;11.974;2023-04-01T00:11:32;10.50;99.90
9971;DHT22;5026;51.494;11.974;2023-04-01T00:13:59;10.50;99.90
9971;DHT22;5026;51.494;11.974;2023-04-01T00:16:26;10.50;99.90
9971;DHT22;5026;51.494;11.974;2023-04-01T00:18:53;10.50;99.90
9971;DHT22;5026;51.494;11.974;2023-04-01T00:21:20;10.50;99.90
9971;DHT22;5026;51.494;11.974;2023-04-01T00:23:47;10.50;99.90
9971;DHT22;5026;51.494;11.974;2023-04-01T00:26:16;10.50;99.90
9971;DHT22;5026;51.494;11.974;2023-04-01T00:28:46;10.50;99.90
9971;DHT22;5026;51.494;11.974;2023-04-01T00:31:13;10.50;99.90
9971;DHT22;5026;51.494;11.974;2023-04-01T00:33:41;10.50;99.90
9971;DHT22;5026;51.494;11.974;2023-04-01T00:36:09;10.50;99.90
9971;DHT22;5026;51.494;11.974;2023-04-01T00:38:36;10.50;99.90
9971;DHT22;5026;51.494;11.974;2023-04-01T00:41:04;10.40;99.90
9971;DHT22;5026;51.494;11.974;2023-04-01T00:43:33;10.50;99.90
9971;DHT22;5026;51.494;11.974;2023-04-01T00:46:00;10.50;99.90
9971;DHT22;5026;51.494;11.974;2023-04-01T00:48:29;10.40;99.90
9971;DHT22;5026;51.494;11.974;2023-04-01T00:51:00;10.40;99.90
9971;DHT22;5026;51.494;11.974;2023-04-01T00:53:28;10.40;99.90
9971;DHT22;5026;51.494;11.974;2023-04-01T00:55:59;10.40;99.90
9971;DHT22;5026;51.494;11.974;2023-04-01T00:58:31;10.30;99.90
9971;DHT22;5026;51.494;11.974;2023-04-01T01:01:00;10.40;99.90
9971;DHT22;5026;51.494;11.974;2023-04-01T01:03:28;10.40;99.90
9971;DHT22;5026;51.494;11.974;2023-04-01T01:06:07;10.40;99.90
9971;DHT22;5026;51.494;11.974;2023-04-01T01:08:49;10.40;99.90
9971;DHT22;5026;51.494;11.974;2023-04-01T01:11:22;10.30;99.90
9971;DHT22;5026;51.494;11.974;2023-04-01T01:13:58;10.30;99.90
9971;DHT22;5026;51.494;11.974;2023-04-01T01:16:30;10.30;99.90
9971;DHT22;5026;51.494;11.974;2023-04-01T01:19:08;10.90;99.90
9971;DHT22;5026;51.494;11.974;2023-04-01T01:22:16;10.30;99.90
9971;DHT22;5026;51.494;11.974;2023-04-01T01:27:54;10.20;99.90
9971;DHT22;5026;51.494;11.974;2023-04-01T01:30:35;10.20;99.90
9971;DHT22;5026;51.494;11.974;2023-04-01T01:33:29;10.20;99.90
9971;DHT22;5026;51.494;11.974;2023-04-01T01:36:02;11.60;99.90
9971;DHT22;5026;51.494;11.974;2023-04-01T01:38:33;10.20;99.90
9971;DHT22;5026;51.494;11.974;2023-04-01T01:41:02;10.40;99.90
9971;DHT22;5026;51.494;11.974;2023-04-01T01:43:33;10.20;99.90
9971;DHT22;5026;51.494;11.974;2023-04-01T01:46:05;10.30;99.90
9971;DHT22;5026;51.494;11.974;2023-04-01T01:48:36;10.20;99.90
9971;DHT22;5026;51.494;11.974;2023-04-01T01:51:05;10.70;99.90
9971;DHT22;5026;51.494;11.974;2023-04-01T01:53:32;10.20;99.90
9971;DHT22;5026;51.494;11.974;2023-04-01T01:55:59;10.30;99.90
9971;DHT22;5026;51.494;11.974;2023-04-01T01:58:30;10.20;99.90
9971;DHT22;5026;51.494;11.974;2023-04-01T02:01:00;10.20;99.90
9971;DHT22;5026;51.494;11.974;2023-04-01T02:03:30;10.20;99.90
9971;DHT22;5026;51.494;11.974;2023-04-01T02:06:00;10.20;99.90
9971;DHT22;5026;51.494;11.974;2023-04-01T02:08:33;10.20;99.90
9971;DHT22;5026;51.494;11.974;2023-04-01T02:11:03;10.20;99.90
9971;DHT22;5026;51.494;11.974;2023-04-01T02:13:35;10.20;99.90
9971;DHT22;5026;51.494;11.974;2023-04-01T02:16:07;10.20;99.90
9971;DHT22;5026;51.494;11.974;2023-04-01T02:18:36;10.20;99.90
9971;DHT22;5026;51.494;11.974;2023-04-01T02:21:05;10.30;99.90
9971;DHT22;5026;51.494;11.974;2023-04-01T02:23:35;10.30;99.90
9971;DHT22;5026;51.494;11.974;2023-04-01T02:26:04;11.60;99.90
9971;DHT22;5026;51.494;11.974;2023-04-01T02:28:33;10.30;99.90
9971;DHT22;5026;51.494;11.974;2023-04-01T02:31:01;10.20;99.90
9971;DHT22;5026;51.494;11.974;2023-04-01T02:33:28;10.20;99.90
9971;DHT22;5026;51.494;11.974;2023-04-01T02:35:56;10.30;99.90
9971;DHT22;5026;51.494;11.974;2023-04-01T02:38:24;10.30;99.90
9971;DHT22;5026;51.494;11.974;2023-04-01T02:40:58;10.30;99.90
9971;DHT22;5026;51.494;11.974;2023-04-01T02:43:25;10.30;99.90
9971;DHT22;5026;51.494;11.974;2023-04-01T02:45:52;10.30;99.90
9971;DHT22;5026;51.494;11.974;2023-04-01T02:48:19;10.30;99.90
9971;DHT22;5026;51.494;11.974;2023-04-01T02:50:46;10.40;99.90
9971;DHT22;5026;51.494;11.974;2023-04-01T02:53:13;10.40;99.90
9971;DHT22;5026;51.494;11.974;2023-04-01T02:55:40;10.40;99.90
9971;DHT22;5026;51.494;11.974;2023-04-01T02:58:09;10.40;99.90
9971;DHT22;5026;51.494;11.974;2023-04-01T03:00:36;10.40;99.90
9971;DHT22;5026;51.494;11.974;2023-04-01T03:03:03;10.40;99.90
9971;DHT22;5026;51.494;11.974;2023-04-01T03:05:30;10.40;99.90
9971;DHT22;5026;51.494;11.974;2023-04-01T03:07:57;10.40;99.90
9971;DHT22;5026;51.494;11.974;2023-04-01T03:10:24;10.90;99.90
9971;DHT22;5026;51.494;11.974;2023-04-01T03:12:51;11.00;99.90
9971;DHT22;5026;51.494;11.974;2023-04-01T03:15:19;10.40;99.90
9971;DHT22;5026;51.494;11.974;2023-04-01T03:17:46;10.50;99.90
9971;DHT22;5026;51.494;11.974;2023-04-01T03:20:13;10.40;99.90
9971;DHT22;5026;51.494;11.974;2023-04-01T03:22:40;10.30;99.90
9971;DHT22;5026;51.494;11.974;2023-04-01T03:25:08;10.40;99.90
9971;DHT22;5026;51.494;11.974;2023-04-01T03:27:36;10.30;99.90
9971;DHT22;5026;51.494;11.974;2023-04-01T03:30:04;10.30;99.90
9971;DHT22;5026;51.494;11.974;2023-04-01T03:32:32;10.30;99.90
9971;DHT22;5026;51.494;11.974;2023-04-01T03:34:59;10.30;99.90
9971;DHT22;5026;51.494;11.974;2023-04-01T03:37:26;10.30;99.90
9971;DHT22;5026;51.494;11.974;2023-04-01T03:39:53;10.30;99.90
9971;DHT22;5026;51.494;11.974;2023-04-01T03:42:20;10.30;99.90
9971;DHT22;5026;51.494;11.974;2023-04-01T03:44:47;10.30;99.90
9971;DHT22;5026;51.494;11.974;2023-04-01T03:47:15;10.30;99.90
9971;DHT22;5026;51.494;11.974;2023-04-01T03:49:43;10.30;99.90
9971;DHT22;5026;51.494;11.974;2023-04-01T03:52:10;10.20;99.90
9971;DHT22;5026;51.494;11.974;2023-04-01T03:54:37;10.30;99.90
9971;DHT22;5026;51.494;11.974;2023-04-01T03:57:04;10.00;99.90
9971;DHT22;5026;51.494;11.974;2023-04-01T03:59:31;10.20;99.90
9971;DHT22;5026;51.494;11.974;2023-04-01T04:01:58;11.50;99.90
9971;DHT22;5026;51.494;11.974;2023-04-01T04:04:25;10.20;99.90
9971;DHT22;5026;51.494;11.974;2023-04-01T04:06:54;10.20;99.90
9971;DHT22;5026;51.494;11.974;2023-04-01T04:09:22;10.30;99.90
9971;DHT22;5026;51.494;11.974;2023-04-01T04:11:49;10.20;99.90
9971;DHT22;5026;51.494;11.974;2023-04-01T04:14:16;10.20;99.90
9971;DHT22;5026;51.494;11.974;2023-04-01T04:16:43;10.20;99.90
9971;DHT22;5026;51.494;11.974;2023-04-01T04:19:10;10.20;99.90
9971;DHT22;5026;51.494;11.974;2023-04-01T04:21:37;10.60;99.90
9971;DHT22;5026;51.494;11.974;2023-04-01T04:24:07;10.20;99.90
9971;DHT22;5026;51.494;11.974;2023-04-01T04:26:35;12.10;99.90
9971;DHT22;5026;51.494;11.974;2023-04-01T04:29:02;10.20;99.90
9971;DHT22;5026;51.494;11.974;2023-04-01T04:31:29;10.20;99.90
9971;DHT22;5026;51.494;11.974;2023-04-01T04:33:58;10.10;99.90
9971;DHT22;5026;51.494;11.974;2023-04-01T04:36:25;10.10;99.90
9971;DHT22;5026;51.494;11.974;2023-04-01T04:38:52;10.20;99.90
9971;DHT22;5026;51.494;11.974;2023-04-01T04:41:21;10.20;99.90
9971;DHT22;5026;51.494;11.974;2023-04-01T04:43:50;10.20;99.90
9971;DHT22;5026;51.494;11.974;2023-04-01T04:46:18;10.20;99.90
9971;DHT22;5026;51.494;11.974;2023-04-01T04:48:45;10.20;99.90
9971;DHT22;5026;51.494;11.974;2023-04-01T04:51:15;10.40;99.90
9971;DHT22;5026;51.494;11.974;2023-04-01T04:53:43;10.20;99.90
9971;DHT22;5026;51.494;11.974;2023-04-01T04:56:11;10.20;99.90
9971;DHT22;5026;51.494;11.974;2023-04-01T04:58:39;10.20;99.90
9971;DHT22;5026;51.494;11.974;2023-04-01T05:01:08;10.20;99.90
9971;DHT22;5026;51.494;11.974;2023-04-01T05:03:36;10.20;99.90
9971;DHT22;5026;51.494;11.974;2023-04-01T05:06:03;10.20;99.90
9971;DHT22;5026;51.494;11.974;2023-04-01T05:08:30;10.20;99.90
9971;DHT22;5026;51.494;11.974;2023-04-01T05:10:58;10.30;99.90
9971;DHT22;5026;51.494;11.974;2023-04-01T05:13:25;10.30;99.90
9971;DHT22;5026;51.494;11.974;2023-04-01T05:15:53;10.30;99.90
9971;DHT22;5026;51.494;11.974;2023-04-01T05:18:21;10.30;99.90
9971;DHT22;5026;51.494;11.974;2023-04-01T05:20:49;10.30;99.90
9971;DHT22;5026;51.494;11.974;2023-04-01T05:23:16;10.30;99.90
9971;DHT22;5026;51.494;11.974;2023-04-01T05:25:44;10.30;99.90
9971;DHT22;5026;51.494;11.974;2023-04-01T05:28:11;10.40;99.90
9971;DHT22;5026;51.494;11.974;2023-04-01T05:30:39;10.40;99.90
9971;DHT22;5026;51.494;11.974;2023-04-01T05:33:08;10.40;99.90
9971;DHT22;5026;51.494;11.974;2023-04-01T05:35:39;10.50;99.90
9971;DHT22;5026;51.494;11.974;2023-04-01T05:38:08;10.50;99.90
9971;DHT22;5026;51.494;11.974;2023-04-01T05:40:37;10.60;99.90
9971;DHT22;5026;51.494;11.974;2023-04-01T05:43:04;10.60;99.90
9971;DHT22;5026;51.494;11.974;2023-04-01T05:45:31;10.70;99.90
9971;DHT22;5026;51.494;11.974;2023-04-01T05:47:59;10.60;99.90
9971;DHT22;5026;51.494;11.974;2023-04-01T05:50:27;10.70;99.90
9971;DHT22;5026;51.494;11.974;2023-04-01T05:52:54;10.70;99.90
9971;DHT22;5026;51.494;11.974;2023-04-01T05:55:21;10.80;99.90
9971;DHT22;5026;51.494;11.974;2023-04-01T05:57:48;11.80;99.90
9971;DHT22;5026;51.494;11.974;2023-04-01T06:00:16;11.00;99.90
9971;DHT22;5026;51.494;11.974;2023-04-01T06:02:45;11.00;99.90
9971;DHT22;5026;51.494;11.974;2023-04-01T06:05:16;11.10;99.90
9971;DHT22;5026;51.494;11.974;2023-04-01T06:07:45;11.10;99.90
9971;DHT22;5026;51.494;11.974;2023-04-01T06:10:14;11.10;99.90
9971;DHT22;5026;51.494;11.974;2023-04-01T06:12:56;11.20;99.90
9971;DHT22;5026;51.494;11.974;2023-04-01T06:15:33;11.30;99.90
9971;DHT22;5026;51.494;11.974;2023-04-01T06:18:42;11.40;99.90
9971;DHT22;5026;51.494;11.974;2023-04-01T06:21:34;11.50;99.90
9971;DHT22;5026;51.494;11.974;2023-04-01T06:24:13;12.40;99.90
9971;DHT22;5026;51.494;11.974;2023-04-01T06:26:49;11.90;99.90
9971;DHT22;5026;51.494;11.974;2023-04-01T06:29:29;12.10;99.90
9971;DHT22;5026;51.494;11.974;2023-04-01T06:32:21;12.30;99.90
9971;DHT22;5026;51.494;11.974;2023-04-01T06:35:02;12.70;99.90
9971;DHT22;5026;51.494;11.974;2023-04-01T06:37:52;13.10;99.90
9971;DHT22;5026;51.494;11.974;2023-04-01T06:40:47;13.40;99.90
9971;DHT22;5026;51.494;11.974;2023-04-01T06:43:23;13.50;99.90
9971;DHT22;5026;51.494;11.974;2023-04-01T06:45:57;13.40;99.90
9971;DHT22;5026;51.494;11.974;2023-04-01T06:48:46;13.40;99.90
9971;DHT22;5026;51.494;11.974;2023-04-01T06:51:25;13.40;99.90
9971;DHT22;5026;51.494;11.974;2023-04-01T06:53:58;13.40;99.90
9971;DHT22;5026;51.494;11.974;2023-04-01T06:56:29;13.30;99.90
9971;DHT22;5026;51.494;11.974;2023-04-01T06:58:58;13.30;99.90
9971;DHT22;5026;51.494;11.974;2023-04-01T07:01:31;13.30;99.90
9971;DHT22;5026;51.494;11.974;2023-04-01T07:04:04;13.10;99.90
9971;DHT22;5026;51.494;11.974;2023-04-01T07:06:35;13.20;99.90
9971;DHT22;5026;51.494;11.974;2023-04-01T07:09:06;13.20;99.90
9971;DHT22;5026;51.494;11.974;2023-04-01T07:11:38;13.10;99.90
9971;DHT22;5026;51.494;11.974;2023-04-01T07:14:13;13.10;99.90
9971;DHT22;5026;51.494;11.974;2023-04-01T07:16:46;13.10;99.90
9971;DHT22;5026;51.494;11.974;2023-04-01T07:19:18;13.10;99.90
9971;DHT22;5026;51.494;11.974;2023-04-01T07:21:51;13.20;99.90
9971;DHT22;5026;51.494;11.974;2023-04-01T07:24:23;13.20;99.90
9971;DHT22;5026;51.494;11.974;2023-04-01T07:26:55;13.30;99.90
9971;DHT22;5026;51.494;11.974;2023-04-01T07:29:23;13.40;99.90
9971;DHT22;5026;51.494;11.974;2023-04-01T07:32:09;13.50;99.90
9971;DHT22;5026;51.494;11.974;2023-04-01T07:34:49;13.70;99.90
9971;DHT22;5026;51.494;11.974;2023-04-01T07:37:21;13.90;99.80
9971;DHT22;5026;51.494;11.974;2023-04-01T07:39:55;14.00;99.60
9971;DHT22;5026;51.494;11.974;2023-04-01T07:42:31;14.20;99.40
9971;DHT22;5026;51.494;11.974;2023-04-01T07:45:09;12.70;98.90
9971;DHT22;5026;51.494;11.974;2023-04-01T07:47:50;14.50;99.40
9971;DHT22;5026;51.494;11.974;2023-04-01T07:50:26;14.50;99.30
9971;DHT22;5026;51.494;11.974;2023-04-01T07:53:04;14.70;99.50
9971;DHT22;5026;51.494;11.974;2023-04-01T07:55:38;14.80;99.10
9971;DHT22;5026;51.494;11.974;2023-04-01T07:58:14;14.90;99.20
9971;DHT22;5026;51.494;11.974;2023-04-01T08:00:47;15.00;99.00
9971;DHT22;5026;51.494;11.974;2023-04-01T08:03:27;15.00;99.00
9971;DHT22;5026;51.494;11.974;2023-04-01T08:06:00;15.00;99.10
9971;DHT22;5026;51.494;11.974;2023-04-01T08:08:36;15.00;99.10
9971;DHT22;5026;51.494;11.974;2023-04-01T08:11:11;15.00;99.10
9971;DHT22;5026;51.494;11.974;2023-04-01T08:13:45;14.90;99.20
9971;DHT22;5026;51.494;11.974;2023-04-01T08:16:19;14.80;99.20
9971;DHT22;5026;51.494;11.974;2023-04-01T08:18:56;14.70;99.20
9971;DHT22;5026;51.494;11.974;2023-04-01T08:21:30;14.70;99.30
9971;DHT22;5026;51.494;11.974;2023-04-01T08:24:04;14.80;99.30
9971;DHT22;5026;51.494;11.974;2023-04-01T08:26:35;14.90;99.30
9971;DHT22;5026;51.494;11.974;2023-04-01T08:29:07;15.00;99.50
9971;DHT22;5026;51.494;11.974;2023-04-01T08:31:39;15.10;99.50
9971;DHT22;5026;51.494;11.974;2023-04-01T08:34:14;15.20;99.30
9971;DHT22;5026;51.494;11.974;2023-04-01T08:36:45;15.30;99.10
9971;DHT22;5026;51.494;11.974;2023-04-01T08:39:17;15.40;98.90
9971;DHT22;5026;51.494;11.974;2023-04-01T08:42:15;15.50;98.70
9971;DHT22;5026;51.494;11.974;2023-04-01T08:45:09;15.30;98.80
9971;DHT22;5026;51.494;11.974;2023-04-01T08:48:13;15.40;98.60
9971;DHT22;5026;51.494;11.974;2023-04-01T08:51:01;15.40;98.70
9971;DHT22;5026;51.494;11.974;2023-04-01T08:53:49;15.40;98.70
9971;DHT22;5026;51.494;11.974;2023-04-01T08:56:21;15.50;98.60
9971;DHT22;5026;51.494;11.974;2023-04-01T09:02:12;15.50;98.50
9971;DHT22;5026;51.494;11.974;2023-04-01T09:07:45;15.80;98.40
9971;DHT22;5026;51.494;11.974;2023-04-01T09:10:39;15.80;98.40
9971;DHT22;5026;51.494;11.974;2023-04-01T09:13:25;15.80;98.40
9971;DHT22;5026;51.494;11.974;2023-04-01T09:16:17;15.50;98.10
9971;DHT22;5026;51.494;11.974;2023-04-01T09:19:12;15.60;98.30
9971;DHT22;5026;51.494;11.974;2023-04-01T09:22:05;15.80;98.30
9971;DHT22;5026;51.494;11.974;2023-04-01T09:27:43;15.70;97.80
9971;DHT22;5026;51.494;11.974;2023-04-01T09:36:38;15.90;97.10
9971;DHT22;5026;51.494;11.974;2023-04-01T09:39:25;15.30;97.10
9971;DHT22;5026;51.494;11.974;2023-04-01T09:42:09;15.70;97.20
9971;DHT22;5026;51.494;11.974;2023-04-01T09:44:46;15.60;96.90
9971;DHT22;5026;51.494;11.974;2023-04-01T09:47:25;15.30;97.10
9971;DHT22;5026;51.494;11.974;2023-04-01T09:50:14;15.40;96.70
9971;DHT22;5026;51.494;11.974;2023-04-01T09:52:51;15.50;96.50
9971;DHT22;5026;51.494;11.974;2023-04-01T09:55:49;16.60;96.70
9971;DHT22;5026;51.494;11.974;2023-04-01T10:01:38;15.20;96.40
9971;DHT22;5026;51.494;11.974;2023-04-01T10:07:47;15.00;96.50
9971;DHT22;5026;51.494;11.974;2023-04-01T10:10:36;15.00;96.50
9971;DHT22;5026;51.494;11.974;2023-04-01T10:13:42;15.00;96.60
9971;DHT22;5026;51.494;11.974;2023-04-01T10:20:01;14.70;96.70
9971;DHT22;5026;51.494;11.974;2023-04-01T10:26:14;14.70;96.80
9971;DHT22;5026;51.494;11.974;2023-04-01T10:29:02;14.80;96.90
9971;DHT22;5026;51.494;11.974;2023-04-01T10:32:08;14.80;96.60
9971;DHT22;5026;51.494;11.974;2023-04-01T10:41:31;16.10;96.30
9971;DHT22;5026;51.494;11.974;2023-04-01T10:44:42;16.70;95.50
9971;DHT22;5026;51.494;11.974;2023-04-01T10:47:26;16.80;94.90
9971;DHT22;5026;51.494;11.974;2023-04-01T10:53:24;16.90;95.10
9971;DHT22;5026;51.494;11.974;2023-04-01T10:56:33;16.30;95.50
9971;DHT22;5026;51.494;11.974;2023-04-01T10:59:27;16.20;95.80
9971;DHT22;5026;51.494;11.974;2023-04-01T11:08:33;15.70;97.20
9971;DHT22;5026;51.494;11.974;2023-04-01T11:17:33;16.00;97.20
9971;DHT22;5026;51.494;11.974;2023-04-01T11:23:54;15.90;96.80
9971;DHT22;5026;51.494;11.974;2023-04-01T11:26:33;15.80;96.80
9971;DHT22;5026;51.494;11.974;2023-04-01T11:29:22;15.90;96.90
9971;DHT22;5026;51.494;11.974;2023-04-01T11:31:58;16.10;97.00
9971;DHT22;5026;51.494;11.974;2023-04-01T11:34:49;15.50;96.70
9971;DHT22;5026;51.494;11.974;2023-04-01T11:37:27;16.40;96.10
9971;DHT22;5026;51.494;11.974;2023-04-01T11:40:06;16.60;96.00
9971;DHT22;5026;51.494;11.974;2023-04-01T11:42:43;16.70;95.70
9971;DHT22;5026;51.494;11.974;2023-04-01T11:45:24;16.40;95.70
9971;DHT22;5026;51.494;11.974;2023-04-01T11:48:14;16.40;95.60
9971;DHT22;5026;51.494;11.974;2023-04-01T11:51:00;16.30;95.30
9971;DHT22;5026;51.494;11.974;2023-04-01T11:53:42;16.30;95.20
9971;DHT22;5026;51.494;11.974;2023-04-01T11:56:20;16.10;95.30
9971;DHT22;5026;51.494;11.974;2023-04-01T11:59:13;16.30;95.70
9971;DHT22;5026;51.494;11.974;2023-04-01T12:01:54;16.30;95.50
9971;DHT22;5026;51.494;11.974;2023-04-01T12:04:38;16.40;95.60
9971;DHT22;5026;51.494;11.974;2023-04-01T12:07:18;16.60;95.50
9971;DHT22;5026;51.494;11.974;2023-04-01T12:09:55;16.40;95.10
9971;DHT22;5026;51.494;11.974;2023-04-01T12:12:29;16.50;94.90
9971;DHT22;5026;51.494;11.974;2023-04-01T12:15:08;16.60;94.90
9971;DHT22;5026;51.494;11.974;2023-04-01T12:17:45;16.80;94.90
9971;DHT22;5026;51.494;11.974;2023-04-01T12:20:29;16.80;94.80
9971;DHT22;5026;51.494;11.974;2023-04-01T12:23:07;16.80;95.00
9971;DHT22;5026;51.494;11.974;2023-04-01T12:26:06;16.60;95.10
9971;DHT22;5026;51.494;11.974;2023-04-01T12:28:44;16.40;95.20
9971;DHT22;5026;51.494;11.974;2023-04-01T12:31:25;15.90;95.50
9971;DHT22;5026;51.494;11.974;2023-04-01T12:34:24;15.80;95.80
9971;DHT22;5026;51.494;11.974;2023-04-01T12:37:04;15.70;96.00
9971;DHT22;5026;51.494;11.974;2023-04-01T12:42:53;15.60;96.40
9971;DHT22;5026;51.494;11.974;2023-04-01T12:45:30;15.60;96.70
9971;DHT22;5026;51.494;11.974;2023-04-01T12:51:28;15.70;96.70
9971;DHT22;5026;51.494;11.974;2023-04-01T12:54:34;15.80;96.70
9971;DHT22;5026;51.494;11.974;2023-04-01T12:57:19;15.80;96.80
9971;DHT22;5026;51.494;11.974;2023-04-01T13:00:11;15.90;96.80
9971;DHT22;5026;51.494;11.974;2023-04-01T13:02:55;15.90;96.70
9971;DHT22;5026;51.494;11.974;2023-04-01T13:08:36;16.20;96.50
9971;DHT22;5026;51.494;11.974;2023-04-01T13:11:09;15.90;96.40
9971;DHT22;5026;51.494;11.974;2023-04-01T13:13:53;15.70;96.60
9971;DHT22;5026;51.494;11.974;2023-04-01T13:16:29;15.80;96.60
9971;DHT22;5026;51.494;11.974;2023-04-01T13:19:01;15.70;97.10
9971;DHT22;5026;51.494;11.974;2023-04-01T13:21:41;15.20;97.70
9971;DHT22;5026;51.494;11.974;2023-04-01T13:24:21;15.40;97.60
9971;DHT22;5026;51.494;11.974;2023-04-01T13:26:55;15.50;97.60
9971;DHT22;5026;51.494;11.974;2023-04-01T13:29:27;15.50;97.50
9971;DHT22;5026;51.494;11.974;2023-04-01T13:32:10;15.50;97.60
9971;DHT22;5026;51.494;11.974;2023-04-01T13:34:52;15.40;97.50
9971;DHT22;5026;51.494;11.974;2023-04-01T13:37:32;15.30;97.20
9971;DHT22;5026;51.494;11.974;2023-04-01T13:40:13;15.30;97.20
9971;DHT22;5026;51.494;11.974;2023-04-01T13:42:47;15.20;97.30
9971;DHT22;5026;51.494;11.974;2023-04-01T13:45:18;15.20;97.40
9971;DHT22;5026;51.494;11.974;2023-04-01T13:51:09;15.10;97.50
9971;DHT22;5026;51.494;11.974;2023-04-01T13:53:50;15.00;97.60
9971;DHT22;5026;51.494;11.974;2023-04-01T13:56:33;15.10;98.00
9971;DHT22;5026;51.494;11.974;2023-04-01T13:59:25;15.10;98.20
9971;DHT22;5026;51.494;11.974;2023-04-01T14:02:05;15.10;98.10
9971;DHT22;5026;51.494;11.974;2023-04-01T14:04:53;14.70;97.90
9971;DHT22;5026;51.494;11.974;2023-04-01T14:07:36;14.00;98.40
9971;DHT22;5026;51.494;11.974;2023-04-01T14:10:13;13.80;98.70
9971;DHT22;5026;51.494;11.974;2023-04-01T14:12:50;13.90;98.80
9971;DHT22;5026;51.494;11.974;2023-04-01T14:15:31;13.80;98.90
9971;DHT22;5026;51.494;11.974;2023-04-01T14:21:16;13.90;99.10
9971;DHT22;5026;51.494;11.974;2023-04-01T14:30:15;13.80;99.70
9971;DHT22;5026;51.494;11.974;2023-04-01T14:32:54;13.40;99.80
9971;DHT22;5026;51.494;11.974;2023-04-01T14:35:37;13.00;99.90
9971;DHT22;5026;51.494;11.974;2023-04-01T14:41:16;12.80;99.90
9971;DHT22;5026;51.494;11.974;2023-04-01T14:44:02;13.10;99.90
9971;DHT22;5026;51.494;11.974;2023-04-01T14:47:04;12.70;99.90
9971;DHT22;5026;51.494;11.974;2023-04-01T14:49:36;12.20;99.90
9971;DHT22;5026;51.494;11.974;2023-04-01T14:52:11;12.40;99.90
9971;DHT22;5026;51.494;11.974;2023-04-01T14:54:42;12.40;99.90
9971;DHT22;5026;51.494;11.974;2023-04-01T14:57:14;12.80;99.90
9971;DHT22;5026;51.494;11.974;2023-04-01T14:59:47;12.90;99.90
9971;DHT22;5026;51.494;11.974;2023-04-01T15:02:44;13.00;99.90
9971;DHT22;5026;51.494;11.974;2023-04-01T15:05:19;13.30;99.90
9971;DHT22;5026;51.494;11.974;2023-04-01T15:08:03;13.30;99.90
9971;DHT22;5026;51.494;11.974;2023-04-01T15:13:40;13.20;99.90
9971;DHT22;5026;51.494;11.974;2023-04-01T15:16:16;13.00;99.90
9971;DHT22;5026;51.494;11.974;2023-04-01T15:18:54;13.00;99.90
9971;DHT22;5026;51.494;11.974;2023-04-01T15:21:48;13.30;99.90
9971;DHT22;5026;51.494;11.974;2023-04-01T15:24:22;12.70;99.90
9971;DHT22;5026;51.494;11.974;2023-04-01T15:27:19;12.90;99.90
9971;DHT22;5026;51.494;11.974;2023-04-01T15:30:16;12.90;99.90
9971;DHT22;5026;51.494;11.974;2023-04-01T15:32:54;12.90;99.90
9971;DHT22;5026;51.494;11.974;2023-04-01T15:35:34;12.60;99.90
9971;DHT22;5026;51.494;11.974;2023-04-01T15:38:06;12.40;99.90
9971;DHT22;5026;51.494;11.974;2023-04-01T15:40:44;12.30;99.90
9971;DHT22;5026;51.494;11.974;2023-04-01T15:43:24;12.40;99.90
9971;DHT22;5026;51.494;11.974;2023-04-01T15:49:05;12.70;99.90
9971;DHT22;5026;51.494;11.974;2023-04-01T15:55:00;12.70;99.90
9971;DHT22;5026;51.494;11.974;2023-04-01T15:57:40;12.50;99.90
9971;DHT22;5026;51.494;11.974;2023-04-01T16:00:26;12.40;99.90
9971;DHT22;5026;51.494;11.974;2023-04-01T16:03:13;12.60;99.90
9971;DHT22;5026;51.494;11.974;2023-04-01T16:05:51;12.90;99.90
9971;DHT22;5026;51.494;11.974;2023-04-01T16:08:41;12.80;99.90
9971;DHT22;5026;51.494;11.974;2023-04-01T16:11:18;12.70;99.90
9971;DHT22;5026;51.494;11.974;2023-04-01T16:13:59;12.60;99.90
9971;DHT22;5026;51.494;11.974;2023-04-01T16:16:38;12.50;99.90
9971;DHT22;5026;51.494;11.974;2023-04-01T16:19:36;12.40;99.90
9971;DHT22;5026;51.494;11.974;2023-04-01T16:22:08;12.40;99.90
9971;DHT22;5026;51.494;11.974;2023-04-01T16:24:43;12.30;99.90
9971;DHT22;5026;51.494;11.974;2023-04-01T16:27:14;12.30;99.90
9971;DHT22;5026;51.494;11.974;2023-04-01T16:29:47;12.20;99.90
9971;DHT22;5026;51.494;11.974;2023-04-01T16:32:23;12.20;99.90
9971;DHT22;5026;51.494;11.974;2023-04-01T16:35:04;12.10;99.90
9971;DHT22;5026;51.494;11.974;2023-04-01T16:37:46;12.10;99.90
9971;DHT22;5026;51.494;11.974;2023-04-01T16:40:20;12.00;99.90
9971;DHT22;5026;51.494;11.974;2023-04-01T16:42:51;12.10;99.90
9971;DHT22;5026;51.494;11.974;2023-04-01T16:45:25;12.00;99.90
9971;DHT22;5026;51.494;11.974;2023-04-01T16:47:57;12.00;99.90
9971;DHT22;5026;51.494;11.974;2023-04-01T16:50:37;12.00;99.90
9971;DHT22;5026;51.494;11.974;2023-04-01T16:53:14;12.00;99.90
9971;DHT22;5026;51.494;11.974;2023-04-01T16:55:49;12.00;99.90
9971;DHT22;5026;51.494;11.974;2023-04-01T16:58:22;12.00;99.90
9971;DHT22;5026;51.494;11.974;2023-04-01T17:00:53;11.90;99.90
9971;DHT22;5026;51.494;11.974;2023-04-01T17:03:26;11.90;99.90
9971;DHT22;5026;51.494;11.974;2023-04-01T17:06:07;11.80;99.90
9971;DHT22;5026;51.494;11.974;2023-04-01T17:08:48;11.80;99.90
9971;DHT22;5026;51.494;11.974;2023-04-01T17:11:18;11.80;99.90
9971;DHT22;5026;51.494;11.974;2023-04-01T17:13:52;11.70;99.90
9971;DHT22;5026;51.494;11.974;2023-04-01T17:19:42;11.60;99.90
9971;DHT22;5026;51.494;11.974;2023-04-01T17:22:26;11.50;99.90
9971;DHT22;5026;51.494;11.974;2023-04-01T17:25:08;11.50;99.90
9971;DHT22;5026;51.494;11.974;2023-04-01T17:27:44;11.40;99.90
9971;DHT22;5026;51.494;11.974;2023-04-01T17:30:22;11.20;99.90
9971;DHT22;5026;51.494;11.974;2023-04-01T17:33:03;11.10;99.90
9971;DHT22;5026;51.494;11.974;2023-04-01T17:35:34;11.00;99.90
9971;DHT22;5026;51.494;11.974;2023-04-01T17:38:16;10.80;99.90
9971;DHT22;5026;51.494;11.974;2023-04-01T17:40:57;10.80;99.90
9971;DHT22;5026;51.494;11.974;2023-04-01T17:43:36;10.80;99.90
9971;DHT22;5026;51.494;11.974;2023-04-01T17:46:20;10.70;99.90
9971;DHT22;5026;51.494;11.974;2023-04-01T17:48:54;10.70;99.90
9971;DHT22;5026;51.494;11.974;2023-04-01T17:51:31;10.60;99.90
9971;DHT22;5026;51.494;11.974;2023-04-01T17:54:06;10.50;99.90
9971;DHT22;5026;51.494;11.974;2023-04-01T17:56:48;10.30;99.90
9971;DHT22;5026;51.494;11.974;2023-04-01T17:59:24;10.30;99.90
9971;DHT22;5026;51.494;11.974;2023-04-01T18:02:01;10.30;99.90
9971;DHT22;5026;51.494;11.974;2023-04-01T18:05:01;10.20;99.90
9971;DHT22;5026;51.494;11.974;2023-04-01T18:07:53;10.20;99.90
9971;DHT22;5026;51.494;11.974;2023-04-01T18:10:28;10.20;99.90
9971;DHT22;5026;51.494;11.974;2023-04-01T18:16:02;10.20;99.90
9971;DHT22;5026;51.494;11.974;2023-04-01T18:18:46;10.10;99.90
9971;DHT22;5026;51.494;11.974;2023-04-01T18:21:20;10.10;99.90